createdAt,value
2022-11-21T00:01:17.104Z,0.00
2022-11-21T00:03:43.915Z,0.00
2022-11-21T00:06:10.792Z,-0.10
2022-11-21T00:08:37.595Z,-0.10
2022-11-21T00:11:04.440Z,0.00
2022-11-21T00:13:31.211Z,0.00
2022-11-21T00:16:07.122Z,0.10
2022-11-21T00:18:35.242Z,0.00
2022-11-21T00:21:16.688Z,0.00
2022-11-21T00:23:44.649Z,0.00
2022-11-21T00:26:13.843Z,-0.10
2022-11-21T00:28:40.980Z,-0.10
2022-11-21T00:31:08.423Z,-0.10
2022-11-21T00:33:36.820Z,-0.20
2022-11-21T00:36:10.129Z,-0.10
2022-11-21T00:38:37.401Z,-0.10
2022-11-21T00:41:04.642Z,-0.20
2022-11-21T00:43:31.600Z,-0.20
2022-11-21T00:46:01.344Z,-0.10
2022-11-21T00:48:29.411Z,-0.20
2022-11-21T00:50:56.438Z,-0.20
2022-11-21T00:53:23.203Z,-0.20
2022-11-21T00:55:49.985Z,-0.20
2022-11-21T00:58:16.741Z,-0.20
2022-11-21T01:00:43.652Z,-0.20
2022-11-21T01:03:10.499Z,-0.20
2022-11-21T01:05:37.484Z,-0.20
2022-11-21T01:08:04.576Z,-0.20
2022-11-21T01:10:31.390Z,-0.20
2022-11-21T01:12:58.225Z,-0.20
2022-11-21T01:15:25.020Z,-0.20
2022-11-21T01:17:51.840Z,-0.10
2022-11-21T01:20:18.595Z,-0.20
2022-11-21T01:22:45.352Z,-0.20
2022-11-21T01:25:12.409Z,-0.20
2022-11-21T01:27:39.171Z,-0.20
2022-11-21T01:30:06.608Z,-0.20
2022-11-21T01:32:33.390Z,-0.20
2022-11-21T01:35:00.171Z,-0.30
2022-11-21T01:37:27.046Z,-0.30
2022-11-21T01:39:55.187Z,-0.40
2022-11-21T01:42:22.014Z,-0.40
2022-11-21T01:44:53.633Z,-0.50
2022-11-21T01:47:22.839Z,-0.40
2022-11-21T01:49:51.705Z,-0.50
2022-11-21T01:52:25.541Z,-0.60
2022-11-21T01:54:57.189Z,-0.70
2022-11-21T01:57:34.893Z,-0.70
2022-11-21T02:00:24.179Z,-0.80
2022-11-21T02:02:58.104Z,-0.80
2022-11-21T02:05:31.422Z,-0.90
2022-11-21T02:08:04.645Z,-1.00
2022-11-21T02:10:32.829Z,-1.00
2022-11-21T02:13:00.527Z,-1.00
2022-11-21T02:15:29.488Z,-1.00
2022-11-21T02:17:56.578Z,-1.10
2022-11-21T02:20:25.751Z,-1.10
2022-11-21T02:23:04.778Z,-1.10
2022-11-21T02:25:41.449Z,-1.10
2022-11-21T02:28:20.939Z,-1.10
2022-11-21T02:30:47.744Z,-1.10
2022-11-21T02:33:15.581Z,-1.20
2022-11-21T02:35:42.760Z,-1.30
2022-11-21T02:38:26.816Z,-1.30
2022-11-21T02:41:26.482Z,-1.30
2022-11-21T02:44:01.433Z,-1.30
2022-11-21T02:46:29.060Z,-1.40
2022-11-21T02:48:58.543Z,-1.40
2022-11-21T02:51:25.371Z,-1.40
2022-11-21T02:53:52.166Z,-1.40
2022-11-21T02:56:19.053Z,-1.40
2022-11-21T02:58:46.397Z,-1.40
2022-11-21T03:01:13.283Z,-1.50
2022-11-21T03:03:40.157Z,-1.50
2022-11-21T03:06:06.946Z,-1.50
2022-11-21T03:08:33.681Z,-1.40
2022-11-21T03:11:00.451Z,-1.40
2022-11-21T03:13:27.204Z,-1.50
2022-11-21T03:15:55.459Z,-1.60
2022-11-21T03:18:22.283Z,-1.70
2022-11-21T03:20:49.075Z,-1.70
2022-11-21T03:23:15.846Z,-1.70
2022-11-21T03:25:42.626Z,-1.70
2022-11-21T03:28:09.435Z,-1.80
2022-11-21T03:30:36.292Z,-1.70
2022-11-21T03:33:03.132Z,-1.60
2022-11-21T03:35:30.176Z,-1.70
2022-11-21T03:37:57.091Z,-1.70
2022-11-21T03:40:23.895Z,-1.70
2022-11-21T03:42:50.690Z,-1.70
2022-11-21T03:45:18.092Z,-1.60
2022-11-21T03:47:44.830Z,-1.60
2022-11-21T03:50:15.046Z,-1.70
2022-11-21T03:52:41.927Z,-1.80
2022-11-21T03:55:08.942Z,-1.90
2022-11-21T03:57:35.771Z,-2.00
2022-11-21T04:00:03.066Z,-2.00
2022-11-21T04:02:29.884Z,-2.10
2022-11-21T04:04:56.689Z,-2.00
2022-11-21T04:07:23.634Z,-2.00
2022-11-21T04:09:50.454Z,-2.10
2022-11-21T04:12:17.316Z,-2.00
2022-11-21T04:14:44.103Z,-2.00
2022-11-21T04:17:10.983Z,-2.00
2022-11-21T04:19:37.774Z,-2.10
2022-11-21T04:22:06.349Z,-2.10
2022-11-21T04:24:33.181Z,-2.10
2022-11-21T04:27:00.017Z,-2.10
2022-11-21T04:29:26.877Z,-2.20
2022-11-21T04:31:53.649Z,-2.20
2022-11-21T04:34:20.538Z,-2.20
2022-11-21T04:36:47.374Z,-2.20
2022-11-21T04:39:14.197Z,-2.30
2022-11-21T04:41:41.091Z,-2.30
2022-11-21T04:44:07.900Z,-2.30
2022-11-21T04:46:34.753Z,-2.30
2022-11-21T04:49:05.574Z,-2.30
2022-11-21T04:51:32.506Z,-2.30
2022-11-21T04:53:59.343Z,-2.20
2022-11-21T04:56:26.264Z,-2.20
2022-11-21T05:02:40.206Z,-2.20
2022-11-21T05:05:07.287Z,-2.10
2022-11-21T05:07:34.128Z,-2.10
2022-11-21T05:10:00.974Z,-2.10
2022-11-21T05:12:46.251Z,-2.10
2022-11-21T05:15:13.068Z,-2.20
2022-11-21T05:17:39.870Z,-2.10
2022-11-21T05:20:07.531Z,-2.20
2022-11-21T05:22:34.357Z,-2.20
2022-11-21T05:25:01.165Z,-2.20
2022-11-21T05:27:27.926Z,-2.20
2022-11-21T05:29:55.442Z,-2.20
2022-11-21T05:32:22.224Z,-2.10
2022-11-21T05:34:49.019Z,-2.20
2022-11-21T05:37:15.803Z,-2.20
2022-11-21T05:39:42.646Z,-2.20
2022-11-21T05:42:09.477Z,-2.20
2022-11-21T05:44:36.265Z,-2.10
2022-11-21T05:47:04.920Z,-2.20
2022-11-21T05:49:34.175Z,-2.10
2022-11-21T05:52:00.959Z,-2.20
2022-11-21T05:54:27.938Z,-2.20
2022-11-21T05:56:54.933Z,-2.30
2022-11-21T05:59:21.740Z,-2.40
2022-11-21T06:02:07.200Z,-2.40
2022-11-21T06:04:35.180Z,-2.50
2022-11-21T06:07:02.129Z,-2.50
2022-11-21T06:09:28.959Z,-2.60
2022-11-21T06:11:55.673Z,-2.60
2022-11-21T06:14:22.409Z,-2.50
2022-11-21T06:16:50.561Z,-2.50
2022-11-21T06:19:17.380Z,-2.50
2022-11-21T06:21:44.242Z,-2.40
2022-11-21T06:24:12.267Z,-2.50
2022-11-21T06:26:39.200Z,-2.50
2022-11-21T06:29:06.035Z,-2.50
2022-11-21T06:31:32.826Z,-2.50
2022-11-21T06:33:59.764Z,-2.40
2022-11-21T06:36:27.145Z,-2.40
2022-11-21T06:38:55.554Z,-2.50
2022-11-21T06:41:27.160Z,-2.50
2022-11-21T06:43:54.019Z,-2.40
2022-11-21T06:46:20.801Z,-2.40
2022-11-21T06:48:51.692Z,-2.50
2022-11-21T06:51:25.923Z,-2.60
2022-11-21T06:53:57.818Z,-2.70
2022-11-21T06:56:25.863Z,-2.70
2022-11-21T06:58:53.074Z,-2.80
2022-11-21T07:01:20.113Z,-2.80
2022-11-21T07:03:46.888Z,-2.80
2022-11-21T07:06:13.695Z,-2.90
2022-11-21T07:08:43.275Z,-3.00
2022-11-21T07:11:27.749Z,-2.90
2022-11-21T07:13:59.613Z,-2.80
2022-11-21T07:16:56.969Z,-2.80
2022-11-21T07:19:55.951Z,-2.70
2022-11-21T07:22:22.705Z,-2.90
2022-11-21T07:24:49.451Z,-2.90
2022-11-21T07:27:16.170Z,-2.80
2022-11-21T07:29:42.859Z,-2.80
2022-11-21T07:32:09.726Z,-2.80
2022-11-21T07:34:36.471Z,-2.70
2022-11-21T07:37:05.324Z,-2.70
2022-11-21T07:39:47.563Z,-2.70
2022-11-21T07:42:14.298Z,-2.60
2022-11-21T07:44:41.033Z,-2.60
2022-11-21T07:47:07.795Z,-2.60
2022-11-21T07:49:34.586Z,-2.60
2022-11-21T07:52:01.355Z,-2.50
2022-11-21T07:54:28.404Z,-2.50
2022-11-21T07:56:55.355Z,-2.50
2022-11-21T07:59:22.154Z,-2.40
2022-11-21T08:01:50.751Z,-2.40
2022-11-21T08:04:17.537Z,-2.50
2022-11-21T08:06:44.302Z,-2.40
2022-11-21T08:09:11.086Z,-2.40
2022-11-21T08:11:37.883Z,-2.40
2022-11-21T08:14:04.641Z,-2.30
2022-11-21T08:16:37.719Z,-2.30
2022-11-21T08:19:05.535Z,-2.30
2022-11-21T08:21:32.294Z,-2.30
2022-11-21T08:23:59.050Z,-2.20
2022-11-21T08:26:25.837Z,-2.20
2022-11-21T08:28:58.514Z,-2.30
2022-11-21T08:31:26.621Z,-2.20
2022-11-21T08:34:31.133Z,-2.10
2022-11-21T08:36:59.902Z,-2.10
2022-11-21T08:39:28.243Z,-2.10
2022-11-21T08:42:04.627Z,-2.10
2022-11-21T08:44:35.402Z,-2.10
2022-11-21T08:47:02.311Z,-2.00
2022-11-21T08:49:30.009Z,-2.00
2022-11-21T08:51:56.807Z,-2.10
2022-11-21T08:54:24.433Z,-2.00
2022-11-21T08:56:51.300Z,-2.00
2022-11-21T08:59:18.204Z,-2.00
2022-11-21T09:01:45.107Z,-2.00
2022-11-21T09:04:27.549Z,-2.00
2022-11-21T09:07:20.820Z,-2.00
2022-11-21T09:09:52.120Z,-2.10
2022-11-21T09:12:22.358Z,-2.00
2022-11-21T09:15:14.403Z,-2.10
2022-11-21T09:17:59.940Z,-2.00
2022-11-21T09:20:32.869Z,-1.90
2022-11-21T09:23:11.638Z,-1.80
2022-11-21T09:25:38.547Z,-1.80
2022-11-21T09:28:10.488Z,-1.70
2022-11-21T09:30:57.002Z,-1.70
2022-11-21T09:33:30.186Z,-1.60
2022-11-21T09:36:02.003Z,-1.50
2022-11-21T09:38:31.277Z,-1.50
2022-11-21T09:41:39.281Z,-1.40
2022-11-21T09:44:38.264Z,-1.40
2022-11-21T09:47:27.564Z,-1.30
2022-11-21T09:50:11.043Z,-1.10
2022-11-21T09:56:23.661Z,-1.10
2022-11-21T09:59:08.033Z,-1.00
2022-11-21T10:01:35.111Z,-1.00
2022-11-21T10:04:04.893Z,-0.90
2022-11-21T10:07:27.118Z,-0.90
2022-11-21T10:10:10.727Z,-0.90
2022-11-21T10:13:09.696Z,-0.80
2022-11-21T10:15:57.399Z,-0.80
2022-11-21T10:22:35.718Z,-0.80
2022-11-21T10:25:27.135Z,-0.80
2022-11-21T10:28:13.697Z,-0.70
2022-11-21T10:30:44.347Z,-0.70
2022-11-21T10:33:36.566Z,-0.60
2022-11-21T10:36:25.772Z,-0.60
2022-11-21T10:38:58.659Z,-0.60
2022-11-21T10:41:40.709Z,-0.50
2022-11-21T10:44:47.272Z,-0.50
2022-11-21T10:47:28.974Z,-0.50
2022-11-21T10:50:40.104Z,-0.50
2022-11-21T10:53:37.915Z,-0.40
2022-11-21T10:56:18.706Z,-0.30
2022-11-21T10:58:51.423Z,-0.30
2022-11-21T11:04:52.046Z,-0.10
2022-11-21T11:07:32.080Z,-0.10
2022-11-21T11:10:28.560Z,-0.10
2022-11-21T11:20:05.571Z,0.00
2022-11-21T11:27:00.196Z,0.10
2022-11-21T11:32:59.377Z,0.10
2022-11-21T11:35:32.462Z,0.10
2022-11-21T11:38:09.572Z,0.10
2022-11-21T11:40:41.104Z,0.10
2022-11-21T11:44:01.492Z,0.20
2022-11-21T11:46:53.144Z,0.20
2022-11-21T11:49:57.460Z,0.20
2022-11-21T11:52:28.297Z,0.20
2022-11-21T11:55:06.616Z,0.20
2022-11-21T11:57:37.082Z,0.10
2022-11-21T12:00:10.303Z,0.10
2022-11-21T12:03:07.753Z,0.10
2022-11-21T12:05:37.668Z,0.20
2022-11-21T12:08:40.666Z,0.30
2022-11-21T12:11:32.519Z,0.40
2022-11-21T12:14:09.425Z,0.50
2022-11-21T12:16:36.899Z,0.50
2022-11-21T12:19:13.042Z,0.50
2022-11-21T12:21:40.136Z,0.50
2022-11-21T12:24:10.318Z,0.50
2022-11-21T12:26:49.244Z,0.50
2022-11-21T12:29:30.428Z,0.60
2022-11-21T12:32:21.739Z,0.70
2022-11-21T12:34:57.751Z,0.70
2022-11-21T12:37:47.777Z,0.70
2022-11-21T12:40:42.219Z,0.80
2022-11-21T12:43:44.346Z,0.80
2022-11-21T12:46:29.416Z,0.90
2022-11-21T12:49:32.878Z,0.90
2022-11-21T12:52:33.692Z,0.90
2022-11-21T12:55:18.750Z,0.90
2022-11-21T12:58:27.240Z,1.00
2022-11-21T14:01:18.864Z,1.50
2022-11-21T14:03:59.716Z,1.40
2022-11-21T14:06:32.512Z,1.40
2022-11-21T14:09:50.812Z,1.30
2022-11-21T14:12:44.838Z,1.30
2022-11-21T14:15:22.225Z,1.20
2022-11-21T14:17:57.422Z,1.10
2022-11-21T14:20:38.498Z,1.00
2022-11-21T14:23:23.958Z,1.00
2022-11-21T14:26:04.819Z,0.90
2022-11-21T14:28:34.256Z,0.90
2022-11-21T14:31:06.563Z,0.80
2022-11-21T14:33:39.602Z,0.80
2022-11-21T14:36:23.734Z,0.80
2022-11-21T14:39:29.035Z,0.70
2022-11-21T14:41:57.385Z,0.70
2022-11-21T14:44:24.912Z,0.70
2022-11-21T14:47:05.679Z,0.60
2022-11-21T14:49:32.426Z,0.60
2022-11-21T14:52:11.385Z,0.60
2022-11-21T14:55:22.405Z,0.60
2022-11-21T14:57:43.306Z,0.60
2022-11-21T15:00:36.267Z,0.60
2022-11-21T15:03:03.372Z,0.60
2022-11-21T15:05:54.920Z,0.60
2022-11-21T15:11:13.526Z,0.60
2022-11-21T15:14:06.710Z,0.50
2022-11-21T15:16:30.251Z,0.50
2022-11-21T15:18:59.233Z,0.40
2022-11-21T15:21:28.195Z,0.50
2022-11-21T15:23:55.821Z,0.50
2022-11-21T15:26:35.480Z,0.50
2022-11-21T15:29:02.338Z,0.40
2022-11-21T15:31:29.176Z,0.40
2022-11-21T15:37:12.219Z,0.30
2022-11-21T15:39:48.271Z,0.30
2022-11-21T15:42:49.582Z,0.30
2022-11-21T15:48:03.046Z,0.30
2022-11-21T15:50:29.786Z,0.20
2022-11-21T15:52:56.808Z,0.20
2022-11-21T15:55:29.222Z,0.30
2022-11-21T15:57:15.701Z,0.30
2022-11-21T15:57:55.953Z,0.30
2022-11-21T16:00:22.973Z,0.30
2022-11-21T16:02:49.781Z,0.30
2022-11-21T16:05:16.557Z,0.20
2022-11-21T16:07:43.382Z,0.30
2022-11-21T16:10:18.248Z,0.30
2022-11-21T16:12:48.393Z,0.30
2022-11-21T16:15:15.396Z,0.20
2022-11-21T16:17:42.202Z,0.20
2022-11-21T16:20:09.524Z,0.20
2022-11-21T16:22:36.294Z,0.20
2022-11-21T16:25:03.304Z,0.20
2022-11-21T16:27:32.195Z,0.20
2022-11-21T16:29:59.206Z,0.20
2022-11-21T16:32:26.808Z,0.10
2022-11-21T16:34:54.881Z,0.10
2022-11-21T16:37:21.716Z,0.10
2022-11-21T16:39:52.130Z,0.00
2022-11-21T16:42:20.442Z,0.10
2022-11-21T16:44:48.120Z,0.00
2022-11-21T16:47:15.315Z,0.00
2022-11-21T16:49:48.285Z,0.00
2022-11-21T16:52:15.584Z,-0.10
2022-11-21T16:54:42.377Z,-0.10
2022-11-21T16:57:09.539Z,-0.10
2022-11-21T16:59:36.591Z,-0.20
2022-11-21T17:02:03.862Z,-0.20
2022-11-21T17:04:31.068Z,-0.30
2022-11-21T17:06:58.142Z,-0.30
2022-11-21T17:09:24.926Z,-0.40
2022-11-21T17:11:51.892Z,-0.30
2022-11-21T17:14:18.654Z,-0.40
2022-11-21T17:16:45.900Z,-0.30
2022-11-21T17:19:13.324Z,-0.30
2022-11-21T17:21:40.233Z,-0.30
2022-11-21T17:24:07.163Z,-0.30
2022-11-21T17:26:37.815Z,-0.40
2022-11-21T17:29:05.098Z,-0.40
2022-11-21T17:31:32.812Z,-0.40
2022-11-21T17:34:00.974Z,-0.50
2022-11-21T17:36:29.725Z,-0.50
2022-11-21T17:38:56.876Z,-0.50
2022-11-21T17:41:24.733Z,-0.50
2022-11-21T17:43:58.877Z,-0.50
2022-11-21T17:46:26.300Z,-0.50
2022-11-21T17:48:58.241Z,-0.50
2022-11-21T17:51:30.112Z,-0.60
2022-11-21T17:53:57.426Z,-0.60
2022-11-21T17:56:27.126Z,-0.60
2022-11-21T17:58:54.275Z,-0.60
2022-11-21T18:01:22.143Z,-0.60
2022-11-21T18:03:56.737Z,-0.60
2022-11-21T18:06:24.974Z,-0.60
2022-11-21T18:08:52.156Z,-0.60
2022-11-21T18:11:23.814Z,-0.60
2022-11-21T18:13:50.866Z,-0.60
2022-11-21T18:16:21.743Z,-0.60
2022-11-21T18:18:49.723Z,-0.60
2022-11-21T18:21:28.769Z,-0.60
2022-11-21T18:23:57.118Z,-0.60
2022-11-21T18:26:26.812Z,-0.60
2022-11-21T18:29:20.632Z,-0.60
2022-11-21T18:31:46.310Z,-0.60
2022-11-21T18:34:13.211Z,-0.60
2022-11-21T18:36:40.436Z,-0.60
2022-11-21T18:39:14.138Z,-0.50
2022-11-21T18:41:42.456Z,-0.50
2022-11-21T18:44:09.917Z,-0.50
2022-11-21T18:46:38.685Z,-0.50
2022-11-21T18:49:07.345Z,-0.50
2022-11-21T18:51:35.959Z,-0.40
2022-11-21T18:54:08.095Z,-0.40
2022-11-21T18:56:36.547Z,-0.40
2022-11-21T18:59:05.627Z,-0.50
2022-11-21T19:01:33.766Z,-0.50
2022-11-21T19:04:00.830Z,-0.40
2022-11-21T19:06:28.608Z,-0.50
2022-11-21T19:08:57.205Z,-0.50
2022-11-21T19:11:26.205Z,-0.50
2022-11-21T19:13:54.253Z,-0.50
2022-11-21T19:16:24.826Z,-0.50
2022-11-21T19:21:41.702Z,-0.60
2022-11-21T19:24:13.216Z,-0.60
2022-11-21T19:26:40.424Z,-0.70
2022-11-21T19:29:07.352Z,-0.70
2022-11-21T19:31:37.736Z,-0.70
2022-11-21T19:34:07.716Z,-0.70
2022-11-21T19:36:34.590Z,-0.70
2022-11-21T19:39:01.379Z,-0.70
2022-11-21T19:41:28.415Z,-0.70
2022-11-21T19:43:58.533Z,-0.70
2022-11-21T19:46:37.121Z,-0.80
2022-11-21T19:49:05.733Z,-0.80
2022-11-21T19:51:38.675Z,-0.80
2022-11-21T19:54:07.315Z,-0.80
2022-11-21T19:56:34.619Z,-0.80
2022-11-21T19:59:02.018Z,-0.80
2022-11-21T20:01:30.812Z,-0.80
2022-11-21T20:04:00.287Z,-0.80
2022-11-21T20:06:30.800Z,-0.80
2022-11-21T20:09:09.737Z,-0.80
2022-11-21T20:11:38.754Z,-0.80
2022-11-21T20:14:06.010Z,-0.80
2022-11-21T20:16:35.693Z,-0.80
2022-11-21T20:19:06.583Z,-0.80
2022-11-21T20:21:34.229Z,-0.80
2022-11-21T20:24:01.397Z,-0.80
2022-11-21T20:26:28.760Z,-0.70
2022-11-21T20:28:55.899Z,-0.70
2022-11-21T20:31:28.969Z,-0.70
2022-11-21T20:34:04.828Z,-0.80
2022-11-21T20:36:34.337Z,-0.80
2022-11-21T20:39:07.039Z,-0.80
2022-11-21T20:41:36.189Z,-0.80
2022-11-21T20:46:52.937Z,-0.80
2022-11-21T20:49:19.720Z,-0.80
2022-11-21T20:54:34.555Z,-0.80
2022-11-21T20:57:01.548Z,-0.80
2022-11-21T20:59:28.705Z,-0.80
2022-11-21T21:01:55.838Z,-0.80
2022-11-21T21:04:22.699Z,-0.80
2022-11-21T21:06:49.524Z,-0.70
2022-11-21T21:09:16.313Z,-0.70
2022-11-21T21:11:52.484Z,-0.60
2022-11-21T21:14:23.459Z,-0.60
2022-11-21T21:16:50.476Z,-0.50
2022-11-21T21:19:18.045Z,-0.50
2022-11-21T21:21:45.272Z,-0.40
2022-11-21T21:24:12.825Z,-0.40
2022-11-21T21:26:43.515Z,-0.40
2022-11-21T21:29:17.234Z,-0.30
2022-11-21T21:31:50.640Z,-0.30
2022-11-21T21:34:18.890Z,-0.40
2022-11-21T21:36:45.765Z,-0.50
2022-11-21T21:39:12.544Z,-0.40
2022-11-21T21:41:46.039Z,-0.50
2022-11-21T21:44:14.071Z,-0.40
2022-11-21T21:46:41.006Z,-0.40
2022-11-21T21:49:08.159Z,-0.50
2022-11-21T21:51:37.247Z,-0.50
2022-11-21T21:54:04.791Z,-0.50
2022-11-21T21:56:32.272Z,-0.50
2022-11-21T21:58:59.534Z,-0.50
2022-11-21T22:01:28.563Z,-0.60
2022-11-21T22:03:57.784Z,-0.50
2022-11-21T22:06:25.674Z,-0.50
2022-11-21T22:08:52.611Z,-0.50
2022-11-21T22:11:22.058Z,-0.50
2022-11-21T22:13:52.723Z,-0.50
2022-11-21T22:16:20.061Z,-0.50
2022-11-21T22:18:50.406Z,-0.50
2022-11-21T22:21:24.651Z,-0.40
2022-11-21T22:24:17.736Z,-0.40
2022-11-21T22:26:38.680Z,-0.40
2022-11-21T22:29:05.677Z,-0.40
2022-11-21T22:31:33.004Z,-0.30
2022-11-21T22:34:00.433Z,-0.30
2022-11-21T22:36:27.250Z,-0.20
2022-11-21T22:38:54.925Z,-0.20
2022-11-21T22:41:26.777Z,-0.20
2022-11-21T22:43:58.873Z,-0.20
2022-11-21T22:46:27.325Z,-0.10
2022-11-21T22:48:54.814Z,-0.10
2022-11-21T22:51:27.593Z,-0.10
2022-11-21T22:53:54.386Z,-0.10
2022-11-21T22:56:23.715Z,-0.10
2022-11-21T22:58:51.050Z,-0.10
2022-11-21T23:01:23.302Z,-0.10
2022-11-21T23:03:50.216Z,-0.10
2022-11-21T23:06:19.330Z,0.00
2022-11-21T23:08:47.096Z,0.00
2022-11-21T23:11:19.760Z,0.00
2022-11-21T23:13:47.885Z,0.00
2022-11-21T23:16:16.005Z,0.00
2022-11-21T23:18:43.178Z,0.10
2022-11-21T23:21:11.199Z,0.10
2022-11-21T23:23:38.107Z,0.10
2022-11-21T23:26:05.905Z,0.10
2022-11-21T23:28:32.803Z,0.20
2022-11-21T23:30:59.702Z,0.20
2022-11-21T23:33:26.493Z,0.20
2022-11-21T23:35:53.278Z,0.20
2022-11-21T23:38:20.841Z,0.20
2022-11-21T23:40:48.860Z,0.30
2022-11-21T23:43:17.026Z,0.30
2022-11-21T23:45:45.536Z,0.40
2022-11-21T23:48:12.349Z,0.40
2022-11-21T23:50:39.216Z,0.40
2022-11-21T23:53:06.072Z,0.50
2022-11-21T23:55:32.959Z,0.50
2022-11-21T23:57:59.834Z,0.50
